Time;durP1;ratioP1;P1;durP2;ratioP2;P2;SDS_P1;SDS_P2;PMS_P1;PMS_P2;Temp;Humidity;BMP_temperature;BMP_pressure;BME280_temperature;BME280_humidity;BME280_pressure;Samples;Min_cycle;Max_cycle;Signal;HPM_P1;HPM_P2
2021/09/18 00:02:16;;;;;;;6.45;3.55;;;;;;;;;;5035843;28;20025;-50
2021/09/18 00:04:42;;;;;;;8.00;3.47;;;;;;;;;;5035380;28;20026;-50
2021/09/18 00:07:08;;;;;;;5.82;3.78;;;;;;;;;;5035097;28;20447;-50
2021/09/18 00:09:34;;;;;;;7.97;3.65;;;;;;;;;;5036034;28;20028;-50
2021/09/18 00:12:01;;;;;;;6.28;3.60;;;;;;;;;;5035841;28;20032;-51
2021/09/18 00:14:27;;;;;;;10.50;3.75;;;;;;;;;;5035252;28;20025;-50
2021/09/18 00:16:53;;;;;;;5.28;4.10;;;;;;;;;;5035605;28;20033;-50
2021/09/18 00:19:19;;;;;;;7.63;3.85;;;;;;;;;;5035363;28;20443;-50
2021/09/18 00:21:45;;;;;;;5.30;3.70;;;;;;;;;;5035302;28;20026;-50
2021/09/18 00:24:11;;;;;;;6.35;3.83;;;;;;;;;;5034911;28;20072;-50
2021/09/18 00:26:37;;;;;;;4.95;3.90;;;;;;;;;;5035413;28;20030;-51
2021/09/18 00:29:04;;;;;;;6.50;4.10;;;;;;;;;;5035711;28;20034;-50
2021/09/18 00:31:30;;;;;;;8.40;4.07;;;;;;;;;;5035425;28;20033;-50
2021/09/18 00:33:56;;;;;;;8.98;4.50;;;;;;;;;;5034550;28;20017;-50
2021/09/18 00:36:22;;;;;;;7.07;4.35;;;;;;;;;;5034818;28;20079;-50
2021/09/18 00:38:48;;;;;;;7.40;3.95;;;;;;;;;;5033817;28;20036;-50
2021/09/18 00:41:15;;;;;;;11.55;4.22;;;;;;;;;;5035341;28;20471;-50
2021/09/18 00:43:41;;;;;;;7.10;4.20;;;;;;;;;;5034533;28;20363;-50
2021/09/18 00:46:07;;;;;;;6.82;4.15;;;;;;;;;;5035073;28;20443;-50
2021/09/18 00:48:33;;;;;;;10.07;4.07;;;;;;;;;;5034852;28;20029;-50
2021/09/18 00:50:59;;;;;;;8.65;3.97;;;;;;;;;;5034728;28;20459;-50
2021/09/18 00:53:25;;;;;;;6.47;4.47;;;;;;;;;;5035142;28;20028;-50
2021/09/18 00:55:51;;;;;;;9.43;3.97;;;;;;;;;;5034407;28;20041;-50
2021/09/18 00:58:17;;;;;;;7.38;3.90;;;;;;;;;;5035384;28;20017;-50
2021/09/18 01:00:43;;;;;;;7.38;4.43;;;;;;;;;;5034905;28;20025;-50
2021/09/18 01:03:09;;;;;;;6.43;3.80;;;;;;;;;;5034902;28;20390;-50
2021/09/18 01:05:36;;;;;;;8.00;4.45;;;;;;;;;;5033508;28;20458;-50
2021/09/18 01:08:03;;;;;;;5.45;3.63;;;;;;;;;;5034319;28;20029;-50
2021/09/18 01:10:29;;;;;;;5.85;3.47;;;;;;;;;;5034654;28;20076;-50
2021/09/18 01:13:06;;;;;;;6.60;4.07;;;;;;;;;;5034868;28;20056;-50
2021/09/18 01:15:33;;;;;;;7.05;4.47;;;;;;;;;;5033753;28;20439;-50
2021/09/18 01:18:01;;;;;;;6.20;4.00;;;;;;;;;;5034034;28;20304;-50
2021/09/18 01:20:27;;;;;;;6.00;3.85;;;;;;;;;;5034599;28;20447;-50
2021/09/18 01:22:55;;;;;;;8.82;3.70;;;;;;;;;;5034145;28;20444;-50
2021/09/18 01:25:21;;;;;;;5.97;4.28;;;;;;;;;;5034005;28;20030;-50
2021/09/18 01:27:47;;;;;;;5.88;3.78;;;;;;;;;;5034166;28;20064;-50
2021/09/18 01:30:18;;;;;;;6.28;3.50;;;;;;;;;;5034753;28;20021;-50
2021/09/18 01:32:43;;;;;;;;;;;;;;;;;;5033980;28;20065;-50
2021/09/18 01:35:10;;;;;;;5.93;3.55;;;;;;;;;;5033552;28;19948;-50
2021/09/18 01:37:36;;;;;;;5.93;3.58;;;;;;;;;;5033978;28;20071;-50
2021/09/18 01:40:03;;;;;;;10.77;4.05;;;;;;;;;;5034125;28;20416;-50
2021/09/18 01:42:29;;;;;;;7.68;4.00;;;;;;;;;;5034063;28;20026;-50
2021/09/18 01:44:55;;;;;;;6.00;4.30;;;;;;;;;;5033435;28;20021;-50
2021/09/18 01:47:21;;;;;;;8.95;3.45;;;;;;;;;;5033982;28;20045;-50
2021/09/18 01:49:47;;;;;;;8.23;4.50;;;;;;;;;;5033433;28;20033;-50
2021/09/18 01:52:47;;;;;;;10.50;4.20;;;;;;;;;;5034093;28;20017;-50
2021/09/18 01:55:05;;;;;;;5.90;4.13;;;;;;;;;;5032646;28;20447;-50
2021/09/18 01:57:31;;;;;;;8.15;4.53;;;;;;;;;;5033525;28;20043;-50
2021/09/18 01:59:57;;;;;;;7.57;4.00;;;;;;;;;;5033998;28;20030;-50
2021/09/18 02:02:23;;;;;;;5.22;3.47;;;;;;;;;;5033733;28;20482;-50
2021/09/18 02:04:49;;;;;;;6.63;4.05;;;;;;;;;;5033149;28;20092;-50
2021/09/18 02:07:15;;;;;;;7.97;4.13;;;;;;;;;;5033452;28;20029;-50
2021/09/18 02:09:41;;;;;;;5.90;3.58;;;;;;;;;;5033374;28;20440;-50
2021/09/18 02:12:07;;;;;;;5.47;3.28;;;;;;;;;;5033316;28;20022;-50
2021/09/18 02:14:33;;;;;;;7.03;3.90;;;;;;;;;;5032514;28;20343;-50
2021/09/18 02:16:59;;;;;;;7.40;4.13;;;;;;;;;;5033430;28;20076;-50
2021/09/18 02:19:25;;;;;;;6.70;3.83;;;;;;;;;;5033476;28;20025;-50
2021/09/18 02:21:51;;;;;;;8.38;4.80;;;;;;;;;;5033567;28;20083;-50
2021/09/18 02:24:17;;;;;;;5.43;3.70;;;;;;;;;;5032424;28;20359;-50
2021/09/18 02:26:43;;;;;;;8.18;3.88;;;;;;;;;;5033226;28;20026;-50
2021/09/18 02:29:09;;;;;;;8.43;3.88;;;;;;;;;;5039804;28;20025;-51
2021/09/18 02:31:35;;;;;;;6.75;3.97;;;;;;;;;;5053040;28;20401;-50
2021/09/18 02:34:01;;;;;;;5.78;3.90;;;;;;;;;;5052126;28;20028;-50
2021/09/18 02:36:27;;;;;;;6.40;4.22;;;;;;;;;;5053380;28;20041;-50
2021/09/18 02:38:53;;;;;;;6.25;4.10;;;;;;;;;;5052861;28;20308;-50
2021/09/18 02:41:19;;;;;;;5.95;4.28;;;;;;;;;;5052995;28;20090;-50
2021/09/18 02:43:45;;;;;;;6.43;4.15;;;;;;;;;;5050663;28;20024;-50
2021/09/18 02:46:11;;;;;;;7.07;4.32;;;;;;;;;;5053011;28;20056;-50
2021/09/18 02:48:37;;;;;;;10.73;4.53;;;;;;;;;;5052810;28;20353;-50
2021/09/18 02:51:03;;;;;;;7.72;3.95;;;;;;;;;;5053102;28;20082;-50
2021/09/18 02:53:29;;;;;;;5.32;3.55;;;;;;;;;;5052475;28;20116;-50
2021/09/18 02:55:55;;;;;;;10.15;4.60;;;;;;;;;;5052140;28;20048;-50
2021/09/18 02:58:20;;;;;;;6.78;4.47;;;;;;;;;;5052812;28;20025;-50
2021/09/18 03:00:46;;;;;;;7.65;4.50;;;;;;;;;;5052081;28;20040;-50
2021/09/18 03:03:12;;;;;;;9.27;3.97;;;;;;;;;;5052825;28;20481;-50
2021/09/18 03:05:38;;;;;;;12.05;4.28;;;;;;;;;;5051909;28;20057;-50
2021/09/18 03:08:04;;;;;;;7.72;4.28;;;;;;;;;;5053008;28;20111;-50
2021/09/18 03:10:30;;;;;;;6.75;4.10;;;;;;;;;;5049502;28;20045;-50
2021/09/18 03:12:56;;;;;;;5.38;3.95;;;;;;;;;;5032764;28;20434;-50
2021/09/18 03:15:22;;;;;;;6.50;4.00;;;;;;;;;;5031925;28;20025;-50
2021/09/18 03:17:48;;;;;;;8.40;4.30;;;;;;;;;;5032929;28;20105;-50
2021/09/18 03:20:14;;;;;;;6.18;3.75;;;;;;;;;;5032002;28;20029;-50
2021/09/18 03:22:40;;;;;;;9.45;4.55;;;;;;;;;;5032915;28;20037;-50
2021/09/18 03:25:07;;;;;;;9.05;3.58;;;;;;;;;;5031568;28;20033;-57
2021/09/18 03:27:33;;;;;;;8.45;4.57;;;;;;;;;;5032351;28;20076;-50
2021/09/18 03:29:59;;;;;;;9.20;4.13;;;;;;;;;;5032761;28;20065;-50
2021/09/18 03:32:25;;;;;;;7.97;4.10;;;;;;;;;;5032943;28;20351;-50
2021/09/18 03:34:51;;;;;;;7.25;4.20;;;;;;;;;;5031280;28;20427;-50
2021/09/18 03:37:17;;;;;;;6.55;4.57;;;;;;;;;;5032492;28;20044;-50
2021/09/18 03:39:43;;;;;;;6.88;4.13;;;;;;;;;;5032380;28;20022;-50
2021/09/18 03:42:09;;;;;;;7.22;3.95;;;;;;;;;;5031502;28;20672;-50
2021/09/18 03:44:36;;;;;;;7.15;4.18;;;;;;;;;;5031070;28;20351;-50
2021/09/18 03:47:02;;;;;;;12.02;4.45;;;;;;;;;;5032584;28;20378;-50
2021/09/18 03:49:28;;;;;;;6.32;4.63;;;;;;;;;;5032140;28;20477;-50
2021/09/18 03:51:54;;;;;;;9.60;4.25;;;;;;;;;;5030940;28;20109;-50
2021/09/18 03:54:20;;;;;;;6.35;4.00;;;;;;;;;;5031614;28;20029;-50
2021/09/18 03:56:46;;;;;;;7.40;4.50;;;;;;;;;;5032080;28;20040;-51
2021/09/18 03:59:12;;;;;;;9.57;4.03;;;;;;;;;;5031784;28;20021;-50
2021/09/18 04:01:38;;;;;;;11.38;4.32;;;;;;;;;;5032555;28;20117;-51
2021/09/18 04:04:04;;;;;;;7.90;4.75;;;;;;;;;;5031625;28;20026;-50
2021/09/18 04:06:30;;;;;;;7.57;3.72;;;;;;;;;;5032563;28;20075;-50
2021/09/18 04:08:56;;;;;;;8.73;4.43;;;;;;;;;;5032438;28;20399;-50
2021/09/18 04:11:22;;;;;;;8.05;4.43;;;;;;;;;;5031857;28;20025;-50
2021/09/18 04:13:48;;;;;;;7.18;3.90;;;;;;;;;;5034487;28;20056;-50
2021/09/18 04:16:14;;;;;;;7.28;4.30;;;;;;;;;;5035950;28;20053;-50
2021/09/18 04:18:40;;;;;;;7.65;4.43;;;;;;;;;;5035732;28;20022;-50
2021/09/18 04:21:06;;;;;;;8.32;4.82;;;;;;;;;;5035439;28;20099;-50
2021/09/18 04:23:33;;;;;;;6.80;4.03;;;;;;;;;;5035160;28;20025;-50
2021/09/18 04:25:59;;;;;;;9.63;4.53;;;;;;;;;;5035318;28;20100;-50
2021/09/18 04:28:25;;;;;;;7.55;4.80;;;;;;;;;;5035253;28;20578;-50
2021/09/18 04:30:51;;;;;;;9.82;4.93;;;;;;;;;;5035361;28;20090;-50
2021/09/18 04:33:17;;;;;;;8.57;4.85;;;;;;;;;;5035429;28;20459;-50
2021/09/18 04:35:43;;;;;;;8.13;4.15;;;;;;;;;;5034711;28;20116;-50
2021/09/18 04:38:09;;;;;;;12.43;4.70;;;;;;;;;;5035621;28;20448;-50
2021/09/18 04:40:35;;;;;;;6.30;4.30;;;;;;;;;;5034690;28;20036;-50
2021/09/18 04:43:01;;;;;;;11.77;5.10;;;;;;;;;;5034947;28;20328;-50
2021/09/18 04:45:27;;;;;;;9.75;4.60;;;;;;;;;;5034700;28;20030;-50
2021/09/18 04:47:53;;;;;;;8.32;4.57;;;;;;;;;;5035718;28;20071;-50
2021/09/18 04:50:20;;;;;;;7.60;4.13;;;;;;;;;;5035208;28;20026;-50
2021/09/18 04:52:46;;;;;;;6.13;3.95;;;;;;;;;;5035346;28;20022;-50
2021/09/18 04:55:12;;;;;;;8.13;4.45;;;;;;;;;;5033643;28;20029;-49
2021/09/18 04:57:38;;;;;;;11.18;4.25;;;;;;;;;;5034784;28;20120;-51
2021/09/18 05:00:05;;;;;;;5.80;4.30;;;;;;;;;;5035106;28;20029;-50
2021/09/18 05:02:31;;;;;;;7.32;4.50;;;;;;;;;;5034994;28;20433;-50
2021/09/18 05:04:57;;;;;;;9.80;5.15;;;;;;;;;;5032455;28;20113;-50
2021/09/18 05:07:23;;;;;;;7.82;4.70;;;;;;;;;;5034757;28;20431;-50
2021/09/18 05:09:49;;;;;;;7.20;4.38;;;;;;;;;;5034101;28;20112;-50
2021/09/18 05:12:15;;;;;;;11.60;4.40;;;;;;;;;;5034765;28;20108;-50
2021/09/18 05:14:41;;;;;;;8.75;5.13;;;;;;;;;;5033975;28;20486;-50
2021/09/18 05:17:07;;;;;;;6.05;4.03;;;;;;;;;;5034585;28;20087;-50
2021/09/18 05:19:33;;;;;;;11.77;5.00;;;;;;;;;;5034274;28;20029;-50
2021/09/18 05:21:59;;;;;;;9.90;4.57;;;;;;;;;;5034678;28;20037;-50
2021/09/18 05:24:27;;;;;;;9.85;5.07;;;;;;;;;;5032664;28;20485;-50
2021/09/18 05:26:53;;;;;;;8.18;4.50;;;;;;;;;;5034251;28;20347;-50
2021/09/18 05:29:19;;;;;;;8.40;4.35;;;;;;;;;;5034274;28;20080;-50
2021/09/18 05:31:45;;;;;;;7.40;4.25;;;;;;;;;;5034521;28;20363;-50
2021/09/18 05:34:11;;;;;;;8.13;4.43;;;;;;;;;;5033396;28;20439;-50
2021/09/18 05:36:37;;;;;;;8.57;4.82;;;;;;;;;;5034278;28;20068;-50
2021/09/18 05:39:04;;;;;;;6.82;3.70;;;;;;;;;;5033953;28;20045;-50
2021/09/18 05:41:30;;;;;;;6.85;4.25;;;;;;;;;;5034027;28;20029;-50
2021/09/18 05:43:56;;;;;;;8.18;4.90;;;;;;;;;;5033088;28;20029;-50
2021/09/18 05:46:22;;;;;;;9.43;5.10;;;;;;;;;;5034158;28;20359;-50
2021/09/18 05:48:48;;;;;;;6.95;4.15;;;;;;;;;;5034024;28;20025;-50
2021/09/18 05:51:14;;;;;;;6.82;3.95;;;;;;;;;;5028749;28;20044;-50
2021/09/18 05:53:40;;;;;;;8.05;4.22;;;;;;;;;;5034989;28;20132;-50
2021/09/18 05:56:06;;;;;;;10.35;4.78;;;;;;;;;;5043591;28;20033;-51
2021/09/18 05:58:32;;;;;;;6.65;4.68;;;;;;;;;;5050989;28;20017;-50
2021/09/18 06:00:58;;;;;;;8.55;4.93;;;;;;;;;;5064656;28;20111;-51
2021/09/18 06:03:24;;;;;;;12.25;4.57;;;;;;;;;;5072715;28;20016;-50
2021/09/18 06:05:50;;;;;;;6.28;4.47;;;;;;;;;;5072801;28;20028;-51
2021/09/18 06:08:16;;;;;;;10.30;3.90;;;;;;;;;;5072148;28;20020;-51
2021/09/18 06:10:42;;;;;;;15.90;4.50;;;;;;;;;;5058613;28;20048;-50
2021/09/18 06:13:08;;;;;;;6.22;4.22;;;;;;;;;;5053430;28;20049;-51
2021/09/18 06:15:34;;;;;;;6.55;4.43;;;;;;;;;;5052496;28;20064;-51
2021/09/18 06:18:00;;;;;;;8.20;5.13;;;;;;;;;;5052382;28;20040;-51
2021/09/18 06:20:26;;;;;;;9.98;3.83;;;;;;;;;;5053333;28;20029;-50
2021/09/18 06:22:52;;;;;;;8.55;4.78;;;;;;;;;;5053492;28;20336;-50
2021/09/18 06:25:18;;;;;;;8.40;5.38;;;;;;;;;;5051639;28;20032;-51
2021/09/18 06:27:44;;;;;;;10.77;4.75;;;;;;;;;;5052152;28;20062;-51
2021/09/18 06:30:11;;;;;;;8.38;5.55;;;;;;;;;;5053330;28;20029;-51
2021/09/18 06:32:37;;;;;;;7.70;4.95;;;;;;;;;;5052780;28;20029;-51
2021/09/18 06:35:04;;;;;;;9.10;4.95;;;;;;;;;;5052346;28;20426;-51
2021/09/18 06:37:30;;;;;;;8.85;4.45;;;;;;;;;;5052164;28;20025;-51
2021/09/18 06:39:56;;;;;;;12.45;5.38;;;;;;;;;;5052846;28;20044;-51
2021/09/18 06:42:22;;;;;;;11.38;5.40;;;;;;;;;;5052893;28;20036;-51
2021/09/18 06:44:48;;;;;;;8.25;5.28;;;;;;;;;;5052255;28;20024;-51
2021/09/18 06:47:14;;;;;;;9.20;4.95;;;;;;;;;;5037836;28;20040;-51
2021/09/18 06:49:40;;;;;;;9.50;5.40;;;;;;;;;;5032914;28;20387;-51
2021/09/18 06:52:06;;;;;;;10.23;6.13;;;;;;;;;;5033100;28;20033;-51
2021/09/18 06:54:32;;;;;;;13.63;6.47;;;;;;;;;;5030755;28;20021;-51
2021/09/18 06:56:58;;;;;;;12.77;6.65;;;;;;;;;;5032317;28;20414;-51
2021/09/18 06:59:24;;;;;;;10.02;5.47;;;;;;;;;;5032562;28;20443;-51
2021/09/18 07:01:50;;;;;;;7.13;4.35;;;;;;;;;;5032763;28;20057;-51
2021/09/18 07:04:16;;;;;;;7.18;5.20;;;;;;;;;;5032448;28;20022;-51
2021/09/18 07:06:42;;;;;;;9.82;4.97;;;;;;;;;;5032794;28;20116;-51
2021/09/18 07:09:08;;;;;;;12.10;7.22;;;;;;;;;;5032346;28;20097;-51
2021/09/18 07:11:34;;;;;;;11.52;6.60;;;;;;;;;;5032645;28;20120;-51
2021/09/18 07:14:00;;;;;;;12.60;7.03;;;;;;;;;;5032036;28;20532;-51
2021/09/18 07:16:26;;;;;;;12.02;6.30;;;;;;;;;;5032416;28;20033;-51
2021/09/18 07:18:52;;;;;;;15.98;7.78;;;;;;;;;;5031623;28;20087;-51
2021/09/18 07:21:18;;;;;;;13.15;7.65;;;;;;;;;;5032518;28;20025;-51
2021/09/18 07:23:45;;;;;;;15.60;7.38;;;;;;;;;;5031613;28;20025;-51
2021/09/18 07:26:12;;;;;;;14.98;7.13;;;;;;;;;;5032537;28;20037;-51
2021/09/18 07:28:38;;;;;;;24.90;9.63;;;;;;;;;;5031988;28;20048;-51
2021/09/18 07:31:04;;;;;;;14.25;7.43;;;;;;;;;;5032544;28;20466;-51
2021/09/18 07:33:30;;;;;;;34.88;13.63;;;;;;;;;;5031784;28;20021;-51
2021/09/18 07:35:56;;;;;;;19.67;8.52;;;;;;;;;;5032278;28;20136;-51
2021/09/18 07:38:22;;;;;;;19.13;8.73;;;;;;;;;;5032336;28;20032;-51
2021/09/18 07:40:53;;;;;;;15.63;7.88;;;;;;;;;;5032067;28;20337;-51
2021/09/18 07:43:19;;;;;;;11.88;6.47;;;;;;;;;;5032431;28;20096;-51
2021/09/18 07:45:45;;;;;;;17.98;8.77;;;;;;;;;;5031526;28;20125;-51
2021/09/18 07:48:11;;;;;;;27.23;11.25;;;;;;;;;;5034754;28;20467;-51
2021/09/18 07:50:37;;;;;;;31.05;12.80;;;;;;;;;;5036290;28;20029;-51
2021/09/18 07:53:03;;;;;;;57.50;19.38;;;;;;;;;;5036050;28;20018;-51
2021/09/18 07:55:29;;;;;;;71.68;19.98;;;;;;;;;;5035262;28;20348;-51
2021/09/18 07:57:56;;;;;;;68.57;18.48;;;;;;;;;;5036020;28;20052;-51
2021/09/18 08:00:22;;;;;;;58.17;16.52;;;;;;;;;;5035889;28;20059;-51
2021/09/18 08:02:48;;;;;;;40.70;13.95;;;;;;;;;;5035747;28;20026;-51
2021/09/18 08:05:14;;;;;;;57.85;18.67;;;;;;;;;;5035431;28;20141;-51
2021/09/18 08:07:40;;;;;;;61.17;16.77;;;;;;;;;;5035718;28;20048;-51
2021/09/18 08:10:08;;;;;;;48.13;15.88;;;;;;;;;;5035440;28;20025;-51
2021/09/18 08:12:35;;;;;;;45.95;12.90;;;;;;;;;;5035390;28;20025;-51
2021/09/18 08:15:01;;;;;;;18.85;7.25;;;;;;;;;;5034920;28;20379;-51
2021/09/18 08:17:27;;;;;;;13.20;6.30;;;;;;;;;;5035368;28;20431;-51
2021/09/18 08:19:53;;;;;;;20.67;8.98;;;;;;;;;;5034866;28;20029;-51
2021/09/18 08:22:19;;;;;;;15.07;8.43;;;;;;;;;;5035382;28;20344;-51
2021/09/18 08:24:45;;;;;;;16.55;9.05;;;;;;;;;;5034809;28;20032;-51
2021/09/18 08:27:11;;;;;;;28.27;12.68;;;;;;;;;;5035537;28;20033;-51
2021/09/18 08:29:37;;;;;;;25.13;10.55;;;;;;;;;;5035757;28;20025;-51
2021/09/18 08:32:03;;;;;;;50.85;17.83;;;;;;;;;;5035476;28;20033;-51
2021/09/18 08:34:29;;;;;;;50.50;15.43;;;;;;;;;;5034669;28;20351;-51
2021/09/18 08:36:55;;;;;;;20.48;7.88;;;;;;;;;;5035561;28;20045;-51
2021/09/18 08:39:21;;;;;;;15.15;5.97;;;;;;;;;;5035262;28;20079;-51
2021/09/18 08:41:48;;;;;;;22.58;10.02;;;;;;;;;;5035321;28;20067;-51
2021/09/18 08:44:15;;;;;;;50.47;16.98;;;;;;;;;;5034067;28;20025;-51
2021/09/18 08:46:42;;;;;;;19.35;9.05;;;;;;;;;;5035188;28;20095;-51
2021/09/18 08:49:09;;;;;;;47.40;16.08;;;;;;;;;;5035062;28;20026;-51
2021/09/18 08:51:36;;;;;;;27.05;11.90;;;;;;;;;;5034979;28;20034;-51
2021/09/18 08:54:04;;;;;;;16.88;8.15;;;;;;;;;;5034268;28;20021;-51
2021/09/18 08:56:30;;;;;;;14.25;7.68;;;;;;;;;;5033910;28;20038;-51
2021/09/18 08:58:57;;;;;;;15.77;8.73;;;;;;;;;;5033943;28;20401;-51
2021/09/18 09:01:23;;;;;;;26.27;11.27;;;;;;;;;;5035018;28;20423;-51
2021/09/18 09:03:55;;;;;;;15.00;6.30;;;;;;;;;;5034022;28;20061;-51
2021/09/18 09:06:21;;;;;;;21.90;11.23;;;;;;;;;;5035033;28;20025;-50
2021/09/18 09:08:58;;;;;;;54.50;17.73;;;;;;;;;;5034943;28;20029;-51
2021/09/18 09:11:27;;;;;;;63.72;18.95;;;;;;;;;;5034923;28;20045;-50
2021/09/18 09:13:54;;;;;;;37.97;11.35;;;;;;;;;;5034064;28;20394;-51
2021/09/18 09:16:21;;;;;;;25.70;12.05;;;;;;;;;;5034313;28;20435;-51
2021/09/18 09:18:47;;;;;;;17.38;9.35;;;;;;;;;;5034415;28;20440;-51
2021/09/18 09:21:18;;;;;;;23.38;12.13;;;;;;;;;;5034795;28;20083;-51
2021/09/18 09:23:44;;;;;;;15.07;8.40;;;;;;;;;;5033708;28;20044;-51
2021/09/18 09:26:14;;;;;;;15.10;7.63;;;;;;;;;;5034387;28;20354;-50
2021/09/18 09:28:41;;;;;;;14.82;7.97;;;;;;;;;;5034057;28;20486;-50
2021/09/18 09:31:26;;;;;;;12.27;6.55;;;;;;;;;;5034680;28;20033;-51
2021/09/18 09:33:59;;;;;;;8.50;4.78;;;;;;;;;;5033740;28;20036;-51
2021/09/18 09:36:26;;;;;;;9.93;5.32;;;;;;;;;;5034135;28;20060;-51
2021/09/18 09:38:53;;;;;;;9.98;5.03;;;;;;;;;;5034156;28;20395;-51
2021/09/18 09:41:34;;;;;;;12.20;6.35;;;;;;;;;;5034158;28;20021;-51
2021/09/18 09:44:04;;;;;;;12.75;6.97;;;;;;;;;;5032926;28;20053;-51
2021/09/18 09:46:31;;;;;;;10.20;5.65;;;;;;;;;;5033958;28;20459;-50
2021/09/18 09:49:04;;;;;;;10.10;5.63;;;;;;;;;;5033687;28;20036;-51
2021/09/18 09:51:30;;;;;;;11.07;6.00;;;;;;;;;;5034078;28;20456;-51
2021/09/18 09:54:14;;;;;;;13.73;6.05;;;;;;;;;;5032404;28;20503;-50
2021/09/18 09:56:40;;;;;;;13.00;5.53;;;;;;;;;;5040334;28;20029;-50
2021/09/18 09:59:06;;;;;;;8.38;4.63;;;;;;;;;;5046032;28;20276;-50
2021/09/18 10:01:32;;;;;;;9.32;5.35;;;;;;;;;;5051300;28;20032;-51
2021/09/18 10:03:58;;;;;;;11.07;5.97;;;;;;;;;;5048900;28;20025;-50
2021/09/18 10:06:24;;;;;;;8.23;4.85;;;;;;;;;;5048572;28;20036;-50
2021/09/18 10:08:51;;;;;;;7.47;4.38;;;;;;;;;;5046187;28;20025;-51
2021/09/18 10:11:29;;;;;;;5.95;4.18;;;;;;;;;;5037931;28;20033;-50
2021/09/18 10:13:56;;;;;;;12.43;5.80;;;;;;;;;;5042405;28;20029;-50
2021/09/18 10:16:22;;;;;;;8.25;4.38;;;;;;;;;;5035668;28;20052;-50
2021/09/18 10:18:49;;;;;;;5.00;3.95;;;;;;;;;;5041935;28;20037;-50
2021/09/18 10:24:00;;;;;;;6.18;3.45;;;;;;;;;;5039698;28;20485;-50
2021/09/18 10:26:26;;;;;;;6.13;3.10;;;;;;;;;;5044330;28;20470;-51
2021/09/18 10:28:52;;;;;;;7.95;3.88;;;;;;;;;;5044292;28;20025;-50
2021/09/18 10:31:21;;;;;;;3.70;2.95;;;;;;;;;;5048170;28;20032;-51
2021/09/18 10:33:52;;;;;;;5.22;2.45;;;;;;;;;;5051546;28;20052;-50
2021/09/18 10:36:17;;;;;;;;;;;;;;;;;;5052782;28;20029;-50
2021/09/18 10:38:51;;;;;;;14.90;4.88;;;;;;;;;;5053050;28;19905;-50
2021/09/18 10:41:27;;;;;;;7.10;4.40;;;;;;;;;;5053355;28;20031;-50
2021/09/18 10:43:57;;;;;;;4.30;3.00;;;;;;;;;;5051955;28;20028;-50
2021/09/18 10:46:41;;;;;;;7.25;4.22;;;;;;;;;;5053135;28;20336;-50
2021/09/18 10:49:27;;;;;;;6.32;4.40;;;;;;;;;;5053020;28;20037;-50
2021/09/18 10:51:54;;;;;;;8.70;3.70;;;;;;;;;;5046684;28;20124;-51
2021/09/18 10:54:20;;;;;;;5.22;2.80;;;;;;;;;;5051865;28;20029;-50
2021/09/18 10:56:55;;;;;;;5.22;2.95;;;;;;;;;;5052756;28;20033;-50
2021/09/18 10:59:57;;;;;;;4.22;2.97;;;;;;;;;;5052323;28;20121;-50
2021/09/18 11:02:35;;;;;;;5.13;2.97;;;;;;;;;;5030210;28;20439;-50
2021/09/18 11:05:02;;;;;;;5.32;3.28;;;;;;;;;;5029433;28;20041;-50
2021/09/18 11:07:39;;;;;;;9.13;3.45;;;;;;;;;;5030331;28;20033;-51
2021/09/18 11:10:09;;;;;;;2.95;2.40;;;;;;;;;;5029871;28;20041;-51
2021/09/18 11:12:35;;;;;;;3.88;2.80;;;;;;;;;;5010304;28;20034;-51
2021/09/18 11:15:02;;;;;;;3.33;2.30;;;;;;;;;;5009512;28;20679;-51
2021/09/18 11:17:32;;;;;;;4.53;2.95;;;;;;;;;;5010281;28;20057;-50
2021/09/18 11:20:11;;;;;;;5.53;3.10;;;;;;;;;;5010186;28;20060;-52
2021/09/18 11:22:39;;;;;;;4.67;3.27;;;;;;;;;;5012012;28;20084;-51
2021/09/18 11:25:23;;;;;;;5.72;3.58;;;;;;;;;;5024259;28;20096;-50
2021/09/18 11:28:06;;;;;;;3.95;3.10;;;;;;;;;;5025409;28;20053;-52
2021/09/18 11:30:45;;;;;;;9.45;2.65;;;;;;;;;;5015998;28;20041;-50
2021/09/18 11:33:12;;;;;;;2.83;2.28;;;;;;;;;;5020539;28;20101;-50
2021/09/18 11:35:38;;;;;;;3.53;2.53;;;;;;;;;;5033027;28;20040;-50
2021/09/18 11:38:06;;;;;;;5.45;3.33;;;;;;;;;;5036014;28;20431;-50
2021/09/18 11:40:33;;;;;;;5.68;3.00;;;;;;;;;;5035977;28;20022;-51
2021/09/18 11:42:59;;;;;;;2.75;2.10;;;;;;;;;;5036480;28;20025;-50
2021/09/18 11:45:26;;;;;;;2.90;2.22;;;;;;;;;;5041977;28;20037;-50
2021/09/18 11:47:56;;;;;;;3.90;2.45;;;;;;;;;;5055929;28;20037;-51
2021/09/18 11:50:22;;;;;;;;;;;;;;;;;;5056057;28;20021;-50
2021/09/18 11:52:48;;;;;;;3.80;2.28;;;;;;;;;;5055787;28;20003;-51
2021/09/18 11:55:31;;;;;;;2.65;2.08;;;;;;;;;;5055313;28;20310;-51
2021/09/18 11:58:00;;;;;;;3.55;2.35;;;;;;;;;;5055986;28;20119;-50
2021/09/18 12:00:26;;;;;;;2.95;2.03;;;;;;;;;;5055477;28;20017;-51
2021/09/18 12:03:00;;;;;;;4.75;2.45;;;;;;;;;;5055433;28;20443;-51
2021/09/18 12:05:26;;;;;;;3.83;3.42;;;;;;;;;;5054989;28;20025;-51
2021/09/18 12:07:52;;;;;;;4.22;2.55;;;;;;;;;;5055511;28;20453;-51
2021/09/18 12:10:21;;;;;;;5.13;2.20;;;;;;;;;;5054240;28;20430;-51
2021/09/18 12:12:54;;;;;;;3.90;2.72;;;;;;;;;;5035290;28;20044;-50
2021/09/18 12:15:29;;;;;;;4.95;3.10;;;;;;;;;;5034522;28;20517;-50
2021/09/18 12:17:55;;;;;;;5.32;2.95;;;;;;;;;;5035532;28;20212;-51
2021/09/18 12:20:21;;;;;;;4.95;2.30;;;;;;;;;;5035712;28;20132;-50
2021/09/18 12:22:47;;;;;;;4.00;2.78;;;;;;;;;;5035195;28;20030;-51
2021/09/18 12:25:13;;;;;;;4.55;1.60;;;;;;;;;;5034434;28;20391;-51
2021/09/18 12:27:40;;;;;;;3.63;2.60;;;;;;;;;;5035287;28;20030;-50
2021/09/18 12:30:10;;;;;;;4.03;2.38;;;;;;;;;;5034547;28;20029;-50
2021/09/18 12:32:37;;;;;;;2.28;1.50;;;;;;;;;;5035252;28;20025;-50
2021/09/18 12:35:05;;;;;;;2.33;1.90;;;;;;;;;;5039306;28;20025;-51
2021/09/18 12:37:33;;;;;;;5.57;2.10;;;;;;;;;;5054505;28;20390;-50
2021/09/18 12:40:09;;;;;;;2.38;1.85;;;;;;;;;;5055249;28;20017;-51
2021/09/18 12:42:35;;;;;;;3.17;1.73;;;;;;;;;;5054892;28;20061;-50
2021/09/18 12:45:01;;;;;;;3.67;2.20;;;;;;;;;;5054436;28;20104;-50
2021/09/18 12:47:27;;;;;;;2.70;1.95;;;;;;;;;;5055123;28;20037;-51
2021/09/18 12:49:53;;;;;;;2.33;1.90;;;;;;;;;;5054593;28;20036;-51
2021/09/18 12:52:30;;;;;;;2.83;1.35;;;;;;;;;;5054862;28;20033;-51
2021/09/18 12:55:01;;;;;;;2.70;1.92;;;;;;;;;;5054307;28;20035;-51
2021/09/18 12:57:31;;;;;;;1.55;1.25;;;;;;;;;;5054737;28;20447;-51
2021/09/18 13:00:05;;;;;;;2.42;1.73;;;;;;;;;;5054874;28;20160;-51
2021/09/18 13:02:31;;;;;;;27.25;12.15;;;;;;;;;;5054653;28;20033;-50
2021/09/18 13:05:00;;;;;;;6.05;3.15;;;;;;;;;;5052673;28;20107;-50
2021/09/18 13:07:27;;;;;;;4.47;2.10;;;;;;;;;;5054520;28;20052;-51
2021/09/18 13:09:57;;;;;;;1.98;1.52;;;;;;;;;;5054748;28;20409;-51
2021/09/18 13:12:23;;;;;;;;;;;;;;;;;;5036705;28;20032;-51
2021/09/18 13:14:53;;;;;;;2.30;1.15;;;;;;;;;;5033567;28;20286;-51
2021/09/18 13:17:25;;;;;;;1.33;1.23;;;;;;;;;;5034491;28;20037;-51
2021/09/18 13:19:52;;;;;;;3.22;1.80;;;;;;;;;;5043790;28;20032;-51
2021/09/18 13:22:19;;;;;;;2.70;1.30;;;;;;;;;;5042946;28;20023;-51
2021/09/18 13:24:46;;;;;;;1.23;1.10;;;;;;;;;;5043978;28;20056;-50
2021/09/18 13:27:12;;;;;;;1.75;1.30;;;;;;;;;;5043742;28;20025;-51
2021/09/18 13:29:38;;;;;;;1.42;1.33;;;;;;;;;;5043726;28;20458;-50
2021/09/18 13:32:04;;;;;;;1.83;1.27;;;;;;;;;;5051150;28;20167;-51
2021/09/18 13:34:30;;;;;;;2.38;1.58;;;;;;;;;;5052932;28;20021;-51
2021/09/18 13:36:56;;;;;;;2.45;1.70;;;;;;;;;;5053841;28;20060;-51
2021/09/18 13:39:22;;;;;;;3.47;2.08;;;;;;;;;;5054220;28;20108;-51
2021/09/18 13:41:48;;;;;;;3.92;1.50;;;;;;;;;;5054093;28;20028;-51
2021/09/18 13:44:15;;;;;;;1.88;1.50;;;;;;;;;;5053013;28;20029;-51
2021/09/18 13:46:41;;;;;;;1.00;1.00;;;;;;;;;;5053035;28;20029;-51
2021/09/18 13:49:07;;;;;;;3.90;2.20;;;;;;;;;;5053717;28;20324;-50
2021/09/18 13:51:33;;;;;;;1.58;1.27;;;;;;;;;;5053886;28;20028;-51
2021/09/18 13:53:59;;;;;;;1.85;1.45;;;;;;;;;;5052879;28;20017;-51
2021/09/18 13:56:25;;;;;;;2.00;1.50;;;;;;;;;;5052844;28;20044;-50
2021/09/18 13:58:51;;;;;;;4.45;1.30;;;;;;;;;;5053490;28;20032;-51
2021/09/18 14:01:17;;;;;;;1.25;1.15;;;;;;;;;;5053872;28;20346;-51
2021/09/18 14:03:43;;;;;;;3.17;2.25;;;;;;;;;;5052506;28;20025;-51
2021/09/18 14:06:09;;;;;;;2.67;1.58;;;;;;;;;;5053852;28;20029;-50
2021/09/18 14:08:35;;;;;;;1.67;1.17;;;;;;;;;;5053231;28;20013;-50
2021/09/18 14:11:02;;;;;;;2.58;1.20;;;;;;;;;;5046060;28;20451;-51
2021/09/18 14:13:28;;;;;;;1.77;1.30;;;;;;;;;;5032901;28;20025;-51
2021/09/18 14:15:54;;;;;;;1.65;1.00;;;;;;;;;;5033124;28;20108;-51
2021/09/18 14:18:21;;;;;;;1.58;1.38;;;;;;;;;;5033183;28;20048;-50
2021/09/18 14:20:47;;;;;;;2.33;1.30;;;;;;;;;;5033552;28;20021;-51
2021/09/18 14:23:13;;;;;;;1.65;1.40;;;;;;;;;;5033418;28;20025;-50
2021/09/18 14:25:39;;;;;;;2.20;1.10;;;;;;;;;;5032510;28;20032;-51
2021/09/18 14:28:09;;;;;;;1.27;1.15;;;;;;;;;;5032856;28;20045;-51
2021/09/18 14:30:35;;;;;;;1.73;1.50;;;;;;;;;;5032916;28;20026;-51
2021/09/18 14:33:01;;;;;;;1.65;1.25;;;;;;;;;;5032061;28;20033;-50
2021/09/18 14:35:27;;;;;;;1.50;1.25;;;;;;;;;;5032096;28;20041;-51
2021/09/18 14:37:55;;;;;;;1.15;0.98;;;;;;;;;;5032726;28;20041;-50
2021/09/18 14:40:21;;;;;;;1.25;1.15;;;;;;;;;;5032733;28;20030;-51
2021/09/18 14:42:47;;;;;;;2.05;1.40;;;;;;;;;;5032416;28;20037;-51
2021/09/18 14:45:13;;;;;;;1.40;1.27;;;;;;;;;;5032747;28;20083;-51